Time;durP1;ratioP1;P1;durP2;ratioP2;P2;SDS_P1;SDS_P2;PMS_P1;PMS_P2;Temp;Humidity;BMP_temperature;BMP_pressure;BME280_temperature;BME280_humidity;BME280_pressure;Samples;Min_cycle;Max_cycle;Signal;HPM_P1;HPM_P2
2022/10/26 00:01:38;;;;;;;;;;;;;;;17.95;68.53;96910.94;4230250;28;7679;-79
2022/10/26 00:03:42;;;;;;;;;;;;;;;18.02;68.71;96929.53;4218270;28;5612;-78
2022/10/26 00:05:45;;;;;;;;;;;;;;;18.10;68.44;96937.19;4227403;28;5832;-78
2022/10/26 00:07:48;;;;;;;;;;;;;;;18.15;68.47;96945.31;4230512;28;5585;-78
2022/10/26 00:09:51;;;;;;;;;;;;;;;18.19;68.30;96938.44;4231021;28;5617;-78
2022/10/26 00:11:54;;;;;;;;;;;;;;;18.22;68.20;96950.53;4226368;28;5709;-78
2022/10/26 00:13:57;;;;;;;;;;;;;;;18.22;68.15;96940.63;4232274;27;5905;-78
2022/10/26 00:16:00;;;;;;;;;;;;;;;18.18;67.98;96966.25;4222588;28;5745;-78
2022/10/26 00:18:05;;;;;;;;;;;;;;;18.10;68.31;96950.56;4229509;28;5635;-79
2022/10/26 00:20:08;;;;;;;;;;;;;;;18.02;68.38;96967.81;4215946;28;5698;-78
2022/10/26 00:22:11;;;;;;;;;;;;;;;18.02;68.65;96957.09;4228566;28;5813;-77
2022/10/26 00:24:14;;;;;;;;;;;;;;;18.00;68.69;96948.47;4232601;28;5613;-79
2022/10/26 00:26:22;;;;;;;;;;;;;;;18.00;68.54;96927.09;4207103;28;5632;-77
2022/10/26 00:28:24;;;;;;;;;;;;;;;17.98;68.46;96963.97;4218971;28;5794;-77
2022/10/26 00:30:27;;;;;;;;;;;;;;;18.03;68.42;97001.53;4227077;28;5801;-77
2022/10/26 00:32:30;;;;;;;;;;;;;;;18.08;68.40;97038.28;4221356;28;5605;-77
2022/10/26 00:34:34;;;;;;;;;;;;;;;18.12;68.27;97076.91;4223788;28;5720;-78
2022/10/26 00:36:37;;;;;;;;;;;;;;;18.11;68.46;97085.13;4223553;28;5623;-77
2022/10/26 00:38:44;;;;;;;;;;;;;;;18.14;68.48;97064.09;4224185;28;5601;-78
2022/10/26 00:40:47;;;;;;;;;;;;;;;18.16;68.16;97083.41;4222013;28;5826;-77
2022/10/26 00:42:50;;;;;;;;;;;;;;;18.20;68.06;97089.91;4223529;28;5057;-78
2022/10/26 07:33:23;;;;;;;;;;;;;;;16.71;83.90;97316.00;4181275;28;10445;-69
2022/10/26 07:35:25;;;;;;;;;;;;;;;17.02;83.19;97319.63;4181424;28;5812;-69
2022/10/26 07:37:28;;;;;;;;;;;;;;;17.25;82.67;97324.34;4181307;28;5726;-69
2022/10/26 07:39:31;;;;;;;;;;;;;;;17.40;82.09;97317.56;4175783;28;5783;-69
2022/10/26 07:41:36;;;;;;;;;;;;;;;17.57;81.63;97325.00;4172170;28;5755;-69
2022/10/26 07:43:38;;;;;;;;;;;;;;;17.69;81.29;97320.53;4185885;28;5741;-69
2022/10/26 07:45:42;;;;;;;;;;;;;;;17.78;81.10;97326.38;4185270;28;5734;-69
2022/10/26 07:47:45;;;;;;;;;;;;;;;17.88;80.59;97340.03;4181180;28;5742;-69
2022/10/26 07:49:49;;;;;;;;;;;;;;;17.95;80.67;97330.88;4181230;28;5884;-69
2022/10/26 07:51:52;;;;;;;;;;;;;;;17.99;80.41;97334.72;4179825;28;6693;-69
2022/10/26 07:53:55;;;;;;;;;;;;;;;18.05;80.26;97333.03;4180688;28;5738;-71
2022/10/26 07:55:58;;;;;;;;;;;;;;;18.10;79.98;97338.50;4178273;28;5937;-69
2022/10/26 07:58:00;;;;;;;;;;;;;;;18.14;79.74;97336.19;4169909;28;5857;-69
2022/10/26 08:00:05;;;;;;;;;;;;;;;18.17;79.57;97339.22;4181027;28;5733;-69
2022/10/26 08:02:09;;;;;;;;;;;;;;;18.21;79.37;97345.75;4180887;28;5837;-70
2022/10/26 08:04:14;;;;;;;;;;;;;;;18.23;79.18;97337.47;4181121;28;5812;-70
2022/10/26 08:06:18;;;;;;;;;;;;;;;18.26;79.30;97342.41;4181144;28;5809;-69
2022/10/26 08:08:21;;;;;;;;;;;;;;;18.28;79.02;97334.97;4180783;28;5734;-69
2022/10/26 08:10:24;;;;;;;;;;;;;;;18.29;78.82;97337.41;4180924;28;5829;-69
2022/10/26 08:12:27;;;;;;;;;;;;;;;18.32;78.66;97342.28;4180759;28;5734;-70
2022/10/26 08:14:30;;;;;;;;;;;;;;;18.34;78.31;97342.06;4181558;28;5726;-69
2022/10/26 08:16:34;;;;;;;;;;;;;;;18.38;78.34;97339.75;4175889;28;5303;-69
2022/10/26 08:18:37;;;;;;;;;;;;;;;18.39;78.48;97344.06;4171523;28;7726;-69
2022/10/26 08:20:40;;;;;;;;;;;;;;;18.42;78.16;97340.91;4168162;28;5920;-69
2022/10/26 08:22:44;;;;;;;;;;;;;;;18.43;77.86;97339.88;4174816;28;5924;-70
2022/10/26 08:24:47;;;;;;;;;;;;;;;18.41;77.84;97345.47;4177303;28;5998;-71
2022/10/26 08:26:50;;;;;;;;;;;;;;;18.42;77.58;97343.59;4174727;28;5864;-71
2022/10/26 08:28:53;;;;;;;;;;;;;;;18.39;77.31;97347.56;4170709;28;5733;-68
2022/10/26 08:30:57;;;;;;;;;;;;;;;18.40;77.22;97351.84;4177235;28;5865;-68
2022/10/26 08:33:00;;;;;;;;;;;;;;;18.41;77.12;97345.47;4163687;28;5850;-67
2022/10/26 08:35:03;;;;;;;;;;;;;;;18.46;76.73;97350.97;4162652;28;5179;-69
2022/10/26 08:37:05;;;;;;;;;;;;;;;18.48;77.04;97350.72;4160341;28;5865;-71
2022/10/26 08:39:10;;;;;;;;;;;;;;;18.46;76.59;97342.94;4171012;28;5700;-71
2022/10/26 08:41:14;;;;;;;;;;;;;;;18.48;76.41;97351.53;4162965;28;5749;-71
2022/10/26 08:43:22;;;;;;;;;;;;;;;18.49;76.13;97353.16;4156841;28;5755;-70
2022/10/26 08:45:30;;;;;;;;;;;;;;;18.49;76.02;97355.84;4158166;28;5804;-71
2022/10/26 08:47:45;;;;;;;;;;;;;;;18.49;75.73;97360.38;4158059;28;5756;-72
2022/10/26 08:49:53;;;;;;;;;;;;;;;18.50;75.63;97354.78;4164258;28;5922;-72
2022/10/26 08:52:00;;;;;;;;;;;;;;;18.52;75.85;97352.69;4166935;28;5828;-67
2022/10/26 08:54:10;;;;;;;;;;;;;;;18.54;75.33;97365.84;4158986;28;6725;-67
2022/10/26 08:56:18;;;;;;;;;;;;;;;18.56;75.29;97361.06;4168598;28;5738;-69
2022/10/26 08:58:26;;;;;;;;;;;;;;;18.58;75.04;97362.50;4161350;28;5733;-67
2022/10/26 09:00:30;;;;;;;;;;;;;;;18.59;75.15;97372.16;4168486;28;5077;-70
2022/10/26 09:02:33;;;;;;;;;;;;;;;18.62;75.12;97377.06;4167982;28;5852;-69
2022/10/26 09:04:36;;;;;;;;;;;;;;;18.63;74.89;97378.69;4168644;28;5864;-69
2022/10/26 09:06:53;;;;;;;;;;;;;;;18.67;75.01;97384.41;4168760;28;5860;-68
2022/10/26 09:09:06;;;;;;;;;;;;;;;18.68;74.84;97383.38;4165656;28;5838;-68
2022/10/26 09:11:25;;;;;;;;;;;;;;;18.71;74.44;97382.13;4164941;28;5805;-69
2022/10/26 09:13:42;;;;;;;;;;;;;;;18.71;74.49;97380.25;4160223;28;5820;-67
2022/10/26 09:15:59;;;;;;;;;;;;;;;18.73;74.33;97378.16;4166497;28;5749;-66
2022/10/26 09:18:16;;;;;;;;;;;;;;;18.74;74.29;97377.09;4168102;28;5730;-68
2022/10/26 09:20:34;;;;;;;;;;;;;;;18.75;74.11;97384.09;4168389;28;5839;-65
2022/10/26 09:22:46;;;;;;;;;;;;;;;18.76;74.05;97383.03;4161747;28;5753;-70
2022/10/26 09:24:53;;;;;;;;;;;;;;;18.76;73.75;97380.38;4168599;28;7237;-68
2022/10/26 09:27:06;;;;;;;;;;;;;;;18.76;73.75;97376.88;4168357;28;5737;-68
2022/10/26 09:29:13;;;;;;;;;;;;;;;18.76;73.77;97384.91;4158394;28;5726;-67
2022/10/26 09:31:18;;;;;;;;;;;;;;;18.77;73.95;97383.84;4160128;28;5721;-68
2022/10/26 09:33:24;;;;;;;;;;;;;;;18.78;73.57;97386.31;4164466;28;5730;-74
2022/10/26 09:35:29;;;;;;;;;;;;;;;18.78;73.72;97383.63;4167326;28;5089;-70
2022/10/26 09:37:38;;;;;;;;;;;;;;;18.81;73.69;97399.25;4165873;28;5832;-67
2022/10/26 09:39:49;;;;;;;;;;;;;;;18.83;73.18;97388.31;4168786;28;5821;-68
2022/10/26 09:41:58;;;;;;;;;;;;;;;18.78;73.14;97397.00;4165127;28;5738;-66
2022/10/26 09:44:05;;;;;;;;;;;;;;;18.79;73.14;97390.59;4162631;28;5824;-72
2022/10/26 09:46:15;;;;;;;;;;;;;;;18.78;73.33;97391.66;4164705;28;5816;-70
2022/10/26 09:48:25;;;;;;;;;;;;;;;18.81;72.99;97393.09;4155024;28;6457;-71
2022/10/26 09:50:33;;;;;;;;;;;;;;;18.84;72.79;97403.31;4167575;28;5805;-67
2022/10/26 09:52:35;;;;;;;;;;;;;;;18.83;73.15;97402.50;4159809;28;5993;-66
2022/10/26 09:54:38;;;;;;;;;;;;;;;18.84;72.84;97398.78;4163153;28;5832;-67
2022/10/26 09:56:43;;;;;;;;;;;;;;;18.85;72.61;97399.59;4167568;28;6419;-68
2022/10/26 09:58:52;;;;;;;;;;;;;;;18.85;72.87;97396.91;4164578;28;5754;-67
2022/10/26 10:00:55;;;;;;;;;;;;;;;18.86;72.61;97401.22;4164546;28;5730;-68
2022/10/26 10:02:58;;;;;;;;;;;;;;;18.88;72.25;97404.50;4166358;28;5738;-67
2022/10/26 10:05:01;;;;;;;;;;;;;;;18.89;72.44;97408.78;4166737;28;5949;-65
2022/10/26 10:07:13;;;;;;;;;;;;;;;18.88;72.20;97399.94;4160382;28;5933;-65
2022/10/26 10:09:18;;;;;;;;;;;;;;;18.91;72.20;97412.06;4156868;28;5801;-75
2022/10/26 10:11:21;;;;;;;;;;;;;;;18.92;72.20;97404.88;4155794;28;5826;-66
2022/10/26 10:13:25;;;;;;;;;;;;;;;18.95;71.68;97404.38;4154914;28;5097;-65
2022/10/26 10:15:30;;;;;;;;;;;;;;;18.94;71.91;97403.56;4158095;28;5864;-63
2022/10/26 10:17:33;;;;;;;;;;;;;;;18.94;71.66;97408.13;4154690;28;5964;-65
2022/10/26 10:19:37;;;;;;;;;;;;;;;18.93;71.69;97411.84;4153099;28;5885;-68
2022/10/26 10:21:45;;;;;;;;;;;;;;;18.96;71.76;97412.19;4153024;28;5881;-66
2022/10/26 10:23:50;;;;;;;;;;;;;;;18.98;71.28;97410.09;4157101;28;5740;-66
2022/10/26 10:26:02;;;;;;;;;;;;;;;19.00;71.35;97410.66;4152788;28;5849;-67
2022/10/26 10:28:21;;;;;;;;;;;;;;;19.01;71.19;97414.16;4156821;28;5988;-63
2022/10/26 10:30:30;;;;;;;;;;;;;;;19.04;71.25;97419.91;4159310;28;5893;-67
2022/10/26 10:32:33;;;;;;;;;;;;;;;19.06;71.20;97414.31;4155873;28;5986;-68
2022/10/26 10:34:42;;;;;;;;;;;;;;;19.05;70.74;97410.81;4153605;28;5738;-67
2022/10/26 10:36:46;;;;;;;;;;;;;;;19.06;70.86;97412.44;4152136;28;5807;-66
2022/10/26 10:38:53;;;;;;;;;;;;;;;19.07;70.71;97407.91;4157248;28;5753;-65
2022/10/26 10:40:59;;;;;;;;;;;;;;;19.08;70.99;97418.38;4158092;28;5829;-65
2022/10/26 10:43:06;;;;;;;;;;;;;;;19.08;70.75;97415.69;4159386;28;6524;-67
2022/10/26 10:45:20;;;;;;;;;;;;;;;19.11;70.60;97419.78;4155108;28;5729;-66
2022/10/26 10:47:27;;;;;;;;;;;;;;;19.12;70.35;97416.84;4153836;28;5898;-67
2022/10/26 10:49:31;;;;;;;;;;;;;;;19.14;70.48;97420.16;4157459;28;5858;-66
2022/10/26 10:51:40;;;;;;;;;;;;;;;19.16;70.39;97428.75;4155691;28;5973;-66
2022/10/26 10:53:47;;;;;;;;;;;;;;;19.14;70.04;97419.31;4164117;28;5815;-66
2022/10/26 10:56:04;;;;;;;;;;;;;;;19.13;69.86;97412.31;4158737;28;5841;-66
2022/10/26 10:58:20;;;;;;;;;;;;;;;19.13;69.83;97413.13;4159139;28;5754;-66
2022/10/26 11:00:25;;;;;;;;;;;;;;;19.14;70.11;97414.78;4155480;28;5860;-66
2022/10/26 11:02:51;;;;;;;;;;;;;;;19.16;69.65;97410.00;4158831;28;5897;-66
2022/10/26 11:05:07;;;;;;;;;;;;;;;19.19;69.44;97416.75;4154198;28;5936;-66
2022/10/26 11:07:12;;;;;;;;;;;;;;;19.20;69.35;97419.19;4161629;28;5806;-66
2022/10/26 11:09:19;;;;;;;;;;;;;;;19.20;69.38;97419.19;4162049;28;5996;-67
2022/10/26 11:11:28;;;;;;;;;;;;;;;19.21;69.43;97414.66;4157004;28;5816;-67
2022/10/26 11:13:38;;;;;;;;;;;;;;;19.23;68.95;97422.47;4166172;28;5856;-66
2022/10/26 11:15:46;;;;;;;;;;;;;;;19.25;68.97;97412.31;4166988;28;5808;-67
2022/10/26 11:18:02;;;;;;;;;;;;;;;19.26;69.10;97417.47;4166722;28;5757;-67
2022/10/26 11:20:11;;;;;;;;;;;;;;;19.27;68.86;97407.56;4167109;28;5825;-67
2022/10/26 11:22:22;;;;;;;;;;;;;;;19.25;68.81;97409.63;4157107;28;5195;-67
2022/10/26 11:24:29;;;;;;;;;;;;;;;19.27;68.46;97407.56;4159424;28;5826;-66
2022/10/26 11:26:36;;;;;;;;;;;;;;;19.28;68.51;97410.00;4166553;28;5738;-66
2022/10/26 11:28:51;;;;;;;;;;;;;;;19.29;68.49;97416.19;4166338;28;5739;-66
2022/10/26 11:31:00;;;;;;;;;;;;;;;19.29;68.56;97418.84;4166462;28;5734;-66
2022/10/26 11:33:11;;;;;;;;;;;;;;;19.30;68.48;97412.44;4166221;28;5738;-66
2022/10/26 11:35:19;;;;;;;;;;;;;;;19.30;68.31;97409.75;4166435;28;5734;-66
2022/10/26 11:37:28;;;;;;;;;;;;;;;19.31;68.19;97414.06;4159281;28;5869;-65
2022/10/26 11:39:38;;;;;;;;;;;;;;;19.30;68.41;97407.91;4164999;28;5731;-65
2022/10/26 11:41:48;;;;;;;;;;;;;;;19.31;68.20;97409.53;4166208;28;5841;-66
2022/10/26 11:43:57;;;;;;;;;;;;;;;19.35;68.28;97404.50;4166601;28;5820;-66
2022/10/26 11:46:06;;;;;;;;;;;;;;;19.35;68.13;97401.81;4160789;28;5855;-66
2022/10/26 11:48:16;;;;;;;;;;;;;;;19.35;68.03;97397.28;4165182;28;5730;-66
2022/10/26 11:50:23;;;;;;;;;;;;;;;19.36;67.72;97392.72;4166323;28;5836;-66
2022/10/26 11:52:30;;;;;;;;;;;;;;;19.37;67.64;97394.38;4165846;28;6652;-67
2022/10/26 11:54:35;;;;;;;;;;;;;;;19.40;67.80;97396.59;4166091;28;5817;-67
2022/10/26 11:56:44;;;;;;;;;;;;;;;19.39;67.45;97393.09;4166500;28;5746;-66
2022/10/26 11:58:47;;;;;;;;;;;;;;;19.41;67.64;97387.50;4166377;28;5725;-67
2022/10/26 12:00:54;;;;;;;;;;;;;;;19.42;67.48;97392.63;4166116;28;5748;-66
2022/10/26 12:03:02;;;;;;;;;;;;;;;19.42;67.67;97389.13;4157650;28;5839;-66
2022/10/26 12:05:19;;;;;;;;;;;;;;;19.44;67.39;97400.44;4165996;28;6130;-68
2022/10/26 12:07:26;;;;;;;;;;;;;;;19.46;67.03;97393.78;4158744;28;7742;-67
2022/10/26 12:09:33;;;;;;;;;;;;;;;19.47;67.01;97391.91;4168542;28;6562;-67
2022/10/26 12:11:44;;;;;;;;;;;;;;;19.46;67.03;97395.63;4169361;28;5856;-67
2022/10/26 12:13:54;;;;;;;;;;;;;;;19.48;67.26;97394.38;4169306;28;5762;-67
2022/10/26 12:16:04;;;;;;;;;;;;;;;19.48;66.92;97394.38;4169339;28;5905;-67
2022/10/26 12:18:14;;;;;;;;;;;;;;;19.49;66.92;97392.50;4167814;28;5824;-67
2022/10/26 12:20:52;;;;;;;;;;;;;;;19.50;66.71;97386.09;4161190;28;5754;-67
2022/10/26 12:22:55;;;;;;;;;;;;;;;19.53;66.65;97400.88;4165486;28;5811;-67
2022/10/26 12:25:18;;;;;;;;;;;;;;;19.53;66.47;97407.06;4168919;28;5820;-68
2022/10/26 12:27:32;;;;;;;;;;;;;;;19.54;66.75;97397.16;4168918;28;5742;-67
2022/10/26 12:29:49;;;;;;;;;;;;;;;19.54;66.53;97408.69;4169245;28;5901;-67
2022/10/26 12:31:51;;;;;;;;;;;;;;;19.55;66.30;97406.81;4168874;28;5825;-67
2022/10/26 12:33:55;;;;;;;;;;;;;;;19.55;66.13;97407.66;4165600;28;5888;-66
2022/10/26 12:35:59;;;;;;;;;;;;;;;19.55;66.39;97413.03;4157330;28;5710;-66
2022/10/26 12:38:23;;;;;;;;;;;;;;;19.57;65.81;97396.72;4158732;28;5904;-73
2022/10/26 12:40:41;;;;;;;;;;;;;;;19.57;65.92;97397.53;4157672;28;5754;-71
2022/10/26 12:42:44;;;;;;;;;;;;;;;19.57;65.78;97397.53;4159422;28;5885;-70
2022/10/26 12:45:08;;;;;;;;;;;;;;;19.56;66.01;97395.88;4169659;28;5829;-70
2022/10/26 12:47:49;;;;;;;;;;;;;;;19.57;66.02;97389.47;4157372;28;5744;-68
2022/10/26 12:50:19;;;;;;;;;;;;;;;19.60;65.74;97391.72;4167316;28;5809;-69
2022/10/26 12:52:29;;;;;;;;;;;;;;;19.62;65.57;97394.16;4159188;28;5726;-68
2022/10/26 12:54:43;;;;;;;;;;;;;;;19.64;65.37;97389.34;4162474;28;5915;-76
2022/10/26 12:56:51;;;;;;;;;;;;;;;19.67;65.17;97391.56;4155746;28;5883;-70
2022/10/26 12:59:17;;;;;;;;;;;;;;;19.70;65.08;97391.09;4163009;28;5879;-77
2022/10/26 13:01:57;;;;;;;;;;;;;;;19.71;64.70;97395.44;4181736;28;5859;-72
2022/10/26 13:04:14;;;;;;;;;;;;;;;19.75;64.84;97400.06;4163836;28;5114;-72
2022/10/26 13:06:35;;;;;;;;;;;;;;;19.76;64.67;97395.50;4156086;28;6132;-73
2022/10/26 13:08:43;;;;;;;;;;;;;;;19.78;64.45;97388.84;4163276;28;7753;-75
2022/10/26 13:11:02;;;;;;;;;;;;;;;19.78;64.48;97388.84;4171050;28;5832;-75
2022/10/26 13:13:08;;;;;;;;;;;;;;;19.83;64.10;97385.47;4168187;28;5868;-75
2022/10/26 13:15:21;;;;;;;;;;;;;;;19.85;64.52;97385.22;4167914;28;5828;-80
2022/10/26 13:17:27;;;;;;;;;;;;;;;19.86;64.45;97390.34;4161657;28;5750;-81
2022/10/26 13:19:37;;;;;;;;;;;;;;;19.86;64.37;97385.00;4154707;28;5751;-81
2022/10/26 13:21:48;;;;;;;;;;;;;;;19.87;64.24;97383.94;4157978;28;5757;-73
2022/10/26 13:24:01;;;;;;;;;;;;;;;19.90;63.98;97388.81;4165241;28;5905;-73
2022/10/26 13:26:10;;;;;;;;;;;;;;;19.91;64.02;97385.09;4167501;28;6423;-74
2022/10/26 13:28:32;;;;;;;;;;;;;;;19.94;64.03;97381.13;4167931;28;5824;-76
2022/10/26 13:30:42;;;;;;;;;;;;;;;19.95;64.08;97380.88;4162394;28;5924;-73
2022/10/26 13:32:51;;;;;;;;;;;;;;;19.98;63.91;97376.91;4168435;28;5927;-79
2022/10/26 13:34:57;;;;;;;;;;;;;;;19.99;63.67;97375.84;4167702;28;7733;-77
2022/10/26 13:37:07;;;;;;;;;;;;;;;19.98;63.47;97363.50;4162773;28;5781;-76
2022/10/26 13:39:17;;;;;;;;;;;;;;;19.98;63.87;97361.63;4165179;28;5927;-76
2022/10/26 13:41:28;;;;;;;;;;;;;;;19.99;63.37;97365.13;4161481;28;5742;-74
2022/10/26 13:43:31;;;;;;;;;;;;;;;19.98;63.80;97360.81;4162589;28;5823;-74
2022/10/26 13:45:41;;;;;;;;;;;;;;;19.97;63.37;97357.31;4161978;28;5798;-74
2022/10/26 13:47:49;;;;;;;;;;;;;;;20.00;63.38;97361.38;4164341;28;5873;-74
2022/10/26 13:49:55;;;;;;;;;;;;;;;20.05;63.36;97361.50;4166170;28;5734;-76
2022/10/26 13:52:02;;;;;;;;;;;;;;;20.08;63.46;97363.69;4171144;28;5742;-74
2022/10/26 13:54:18;;;;;;;;;;;;;;;20.07;63.17;97362.06;4164326;28;5836;-74
2022/10/26 13:56:29;;;;;;;;;;;;;;;20.06;63.25;97365.81;4159688;28;5741;-79
2022/10/26 13:58:45;;;;;;;;;;;;;;;20.09;63.20;97362.63;4167656;28;5737;-81
2022/10/26 14:01:01;;;;;;;;;;;;;;;20.10;63.42;97364.25;4166062;28;5850;-77
2022/10/26 14:03:19;;;;;;;;;;;;;;;20.10;62.84;97363.44;4164276;28;5869;-72
2022/10/26 14:05:26;;;;;;;;;;;;;;;20.09;63.38;97365.31;4159843;28;5921;-79
2022/10/26 14:07:36;;;;;;;;;;;;;;;20.08;63.23;97360.19;4161307;28;5828;-76
2022/10/26 14:09:58;;;;;;;;;;;;;;;20.09;63.32;97365.31;4157763;28;5849;-79
2022/10/26 14:12:01;;;;;;;;;;;;;;;20.10;62.79;97358.88;4164762;28;5797;-80
2022/10/26 14:14:05;;;;;;;;;;;;;;;20.09;63.06;97362.63;4163493;28;6084;-82
2022/10/26 14:16:10;;;;;;;;;;;;;;;20.10;63.22;97361.56;4159202;28;5863;-73
2022/10/26 14:18:21;;;;;;;;;;;;;;;20.09;63.09;97357.25;4159600;28;5118;-77
2022/10/26 14:20:27;;;;;;;;;;;;;;;20.08;63.32;97355.63;4160192;28;5844;-77
2022/10/26 14:22:31;;;;;;;;;;;;;;;20.08;62.86;97352.94;4164353;28;5746;-78
2022/10/26 14:24:39;;;;;;;;;;;;;;;20.07;62.81;97356.69;4163509;28;5729;-71
2022/10/26 14:26:51;;;;;;;;;;;;;;;20.06;62.86;97358.56;4167231;28;5836;-83
2022/10/26 14:28:56;;;;;;;;;;;;;;;20.08;62.81;97363.69;4156560;28;5825;-83
2022/10/26 14:31:12;;;;;;;;;;;;;;;20.08;62.93;97357.50;4163348;28;5730;-82
2022/10/26 14:33:28;;;;;;;;;;;;;;;20.09;62.99;97364.50;4162420;28;5844;-86
2022/10/26 14:35:34;;;;;;;;;;;;;;;20.10;63.04;97358.88;4160443;28;6021;-79
2022/10/26 14:37:44;;;;;;;;;;;;;;;20.11;62.87;97352.47;4155522;28;5842;-78
2022/10/26 14:39:47;;;;;;;;;;;;;;;20.13;62.87;97362.97;4159272;28;5941;-75
2022/10/26 14:41:54;;;;;;;;;;;;;;;20.11;62.57;97349.78;4154699;28;5729;-75
2022/10/26 14:43:59;;;;;;;;;;;;;;;20.12;62.79;97355.97;4157952;28;5828;-74
2022/10/26 14:46:03;;;;;;;;;;;;;;;20.10;62.59;97356.19;4155725;28;5952;-75
2022/10/26 14:48:07;;;;;;;;;;;;;;;20.09;62.55;97356.44;4151552;28;5850;-75
2022/10/26 14:50:19;;;;;;;;;;;;;;;20.05;62.99;97358.81;4156007;28;6012;-76
2022/10/26 14:52:24;;;;;;;;;;;;;;;20.05;62.75;97361.50;4160698;28;5943;-76
2022/10/26 14:54:32;;;;;;;;;;;;;;;20.06;62.45;97358.56;4156497;28;5858;-77
2022/10/26 14:56:40;;;;;;;;;;;;;;;20.06;62.61;97368.47;4163219;28;5995;-76
2022/10/26 14:58:45;;;;;;;;;;;;;;;20.03;62.50;97353.66;4154296;28;5943;-77
2022/10/26 15:00:50;;;;;;;;;;;;;;;20.02;62.52;97353.91;4154430;28;7569;-76
2022/10/26 15:02:55;;;;;;;;;;;;;;;20.04;62.60;97354.47;4158605;28;5809;-75
2022/10/26 15:05:00;;;;;;;;;;;;;;;20.03;62.41;97355.53;4157105;28;5225;-76
2022/10/26 15:07:16;;;;;;;;;;;;;;;20.01;62.29;97354.94;4154447;28;5911;-76
2022/10/26 15:09:37;;;;;;;;;;;;;;;20.01;62.53;97360.31;4164033;28;5734;-76
2022/10/26 15:11:48;;;;;;;;;;;;;;;20.02;62.02;97353.91;4158368;28;5881;-80
2022/10/26 15:13:54;;;;;;;;;;;;;;;20.02;62.33;97357.41;4156110;28;5804;-76
2022/10/26 15:16:07;;;;;;;;;;;;;;;20.02;62.08;97353.91;4153779;28;5865;-75
2022/10/26 15:18:20;;;;;;;;;;;;;;;20.02;62.19;97351.22;4168348;28;5845;-78
2022/10/26 15:20:25;;;;;;;;;;;;;;;20.00;61.95;97362.19;4155228;28;5816;-80
2022/10/26 15:22:29;;;;;;;;;;;;;;;20.01;61.87;97363.00;4155673;28;5747;-75
2022/10/26 15:24:37;;;;;;;;;;;;;;;20.00;62.01;97362.19;4155228;28;5730;-76
2022/10/26 15:26:42;;;;;;;;;;;;;;;20.01;61.83;97365.69;4154997;28;5815;-76
2022/10/26 15:28:49;;;;;;;;;;;;;;;20.02;61.72;97372.69;4152593;28;5897;-76
2022/10/26 15:31:04;;;;;;;;;;;;;;;20.01;61.96;97371.06;4150591;28;5937;-76
2022/10/26 15:33:20;;;;;;;;;;;;;;;20.00;61.97;97370.25;4156967;28;5830;-78
2022/10/26 15:35:32;;;;;;;;;;;;;;;20.01;61.87;97368.38;4156424;28;5770;-75
2022/10/26 15:37:35;;;;;;;;;;;;;;;20.01;61.69;97374.56;4154416;28;7498;-78
2022/10/26 15:39:38;;;;;;;;;;;;;;;20.01;62.12;97371.06;4156859;28;6529;-78
2022/10/26 15:41:46;;;;;;;;;;;;;;;19.99;62.12;97370.47;4160849;28;5943;-77
2022/10/26 15:43:50;;;;;;;;;;;;;;;19.98;62.22;97366.97;4158184;28;5934;-79
2022/10/26 15:45:55;;;;;;;;;;;;;;;20.00;62.10;97372.91;4159987;28;5836;-81
2022/10/26 15:48:07;;;;;;;;;;;;;;;20.01;62.18;97376.41;4157600;28;5873;-77
2022/10/26 15:50:16;;;;;;;;;;;;;;;20.01;62.32;97381.78;4157469;28;6174;-79
2022/10/26 15:52:19;;;;;;;;;;;;;;;20.00;62.21;97380.16;4159648;28;7764;-80
2022/10/26 15:54:22;;;;;;;;;;;;;;;20.00;62.20;97388.22;4160191;28;5876;-80
2022/10/26 15:56:26;;;;;;;;;;;;;;;19.99;62.45;97383.91;4154582;28;6577;-82
2022/10/26 15:58:34;;;;;;;;;;;;;;;19.98;62.45;97383.09;4159139;28;5729;-80
2022/10/26 16:00:37;;;;;;;;;;;;;;;19.98;62.76;97383.09;4168468;28;5813;-81
2022/10/26 16:02:42;;;;;;;;;;;;;;;19.99;62.58;97383.91;4166986;28;5742;-79
2022/10/26 16:04:46;;;;;;;;;;;;;;;19.99;62.67;97390.09;4172258;28;5848;-83
2022/10/26 16:06:49;;;;;;;;;;;;;;;20.01;62.41;97389.84;4168139;28;7055;-78
2022/10/26 16:08:55;;;;;;;;;;;;;;;20.00;62.41;97396.25;4160018;28;5846;-80
2022/10/26 16:10:58;;;;;;;;;;;;;;;19.99;62.59;97397.31;4164948;28;5857;-80
2022/10/26 16:13:01;;;;;;;;;;;;;;;20.00;62.53;97401.63;4166115;28;5737;-80
2022/10/26 16:15:04;;;;;;;;;;;;;;;19.99;62.70;97406.19;4166129;28;5953;-78
2022/10/26 16:17:08;;;;;;;;;;;;;;;19.97;62.88;97396.75;4164403;28;5741;-79
2022/10/26 16:19:11;;;;;;;;;;;;;;;19.97;62.72;97394.06;4168937;28;5849;-80
2022/10/26 16:21:36;;;;;;;;;;;;;;;19.95;62.90;97398.84;4163967;28;7031;-80
2022/10/26 16:23:38;;;;;;;;;;;;;;;19.95;62.56;97401.53;4169331;28;5723;-79
2022/10/26 16:25:43;;;;;;;;;;;;;;;19.93;62.50;97399.09;4169437;28;5741;-79
2022/10/26 16:27:48;;;;;;;;;;;;;;;19.90;62.83;97399.56;4161818;28;5800;-79
2022/10/26 16:29:51;;;;;;;;;;;;;;;19.89;62.69;97403.28;4170951;28;7766;-80
2022/10/26 16:31:53;;;;;;;;;;;;;;;19.88;62.73;97403.53;4164717;28;5808;-77
2022/10/26 16:33:56;;;;;;;;;;;;;;;19.88;63.07;97403.53;4165632;28;6443;-77
2022/10/26 16:36:06;;;;;;;;;;;;;;;19.87;62.72;97410.78;4164659;28;5840;-79
2022/10/26 16:38:10;;;;;;;;;;;;;;;19.86;63.13;97416.38;4167975;28;5750;-75
2022/10/26 16:40:14;;;;;;;;;;;;;;;19.85;63.27;97412.06;4168757;28;5738;-77
2022/10/26 16:42:17;;;;;;;;;;;;;;;19.84;62.91;97413.13;4168520;28;5836;-76
2022/10/26 16:44:20;;;;;;;;;;;;;;;19.82;63.25;97420.56;4171703;28;5846;-77
2022/10/26 16:46:23;;;;;;;;;;;;;;;19.81;63.12;97419.75;4163468;28;5828;-77
2022/10/26 16:48:26;;;;;;;;;;;;;;;19.80;63.46;97415.44;4169700;28;5741;-77
2022/10/26 16:50:29;;;;;;;;;;;;;;;19.80;63.37;97417.31;4167149;28;5753;-77
2022/10/26 16:52:38;;;;;;;;;;;;;;;19.78;63.43;97420.22;4161550;28;5825;-77
2022/10/26 16:54:43;;;;;;;;;;;;;;;19.78;63.44;97418.38;4156630;28;5734;-78
2022/10/26 16:56:45;;;;;;;;;;;;;;;19.77;63.42;97427.47;4164131;28;5723;-77
2022/10/26 16:58:49;;;;;;;;;;;;;;;19.78;63.56;97420.22;4160814;28;6500;-78
2022/10/26 17:00:54;;;;;;;;;;;;;;;19.76;63.25;97423.16;4166152;28;5629;-77
2022/10/26 17:02:59;;;;;;;;;;;;;;;19.77;63.49;97432.03;4158912;28;8546;-78
2022/10/26 17:05:02;;;;;;;;;;;;;;;19.75;63.53;97431.44;4166864;28;5737;-78
2022/10/26 17:07:11;;;;;;;;;;;;;;;19.73;63.69;97434.38;4164409;28;5827;-78
2022/10/26 17:09:14;;;;;;;;;;;;;;;19.72;63.52;97435.41;4167195;28;5741;-76
2022/10/26 17:11:20;;;;;;;;;;;;;;;19.71;63.46;97436.47;4169400;28;5856;-79
2022/10/26 17:13:23;;;;;;;;;;;;;;;19.70;63.57;97434.00;4162814;28;5823;-77
2022/10/26 17:15:27;;;;;;;;;;;;;;;19.71;63.43;97430.28;4165067;28;5730;-78
2022/10/26 17:17:30;;;;;;;;;;;;;;;19.71;63.81;97433.78;4163983;28;5737;-76
2022/10/26 17:19:34;;;;;;;;;;;;;;;19.72;63.72;97435.41;4153279;28;5961;-77
2022/10/26 17:21:37;;;;;;;;;;;;;;;19.72;63.36;97432.75;4158645;28;5900;-76
2022/10/26 17:23:40;;;;;;;;;;;;;;;19.71;63.62;97441.84;4159284;28;5832;-77
2022/10/26 17:25:43;;;;;;;;;;;;;;;19.73;63.76;97442.41;4165507;28;6542;-76
2022/10/26 17:27:47;;;;;;;;;;;;;;;19.74;63.49;97452.09;4165495;28;5820;-75
2022/10/26 17:29:50;;;;;;;;;;;;;;;19.75;63.89;97453.72;4159879;28;5801;-75
2022/10/26 17:31:53;;;;;;;;;;;;;;;19.75;63.42;97459.09;4153443;28;5957;-71
2022/10/26 17:33:57;;;;;;;;;;;;;;;19.73;63.78;97458.50;4154382;28;5936;-72
2022/10/26 17:36:01;;;;;;;;;;;;;;;19.75;64.01;97459.09;4156612;28;5844;-71
2022/10/26 17:38:04;;;;;;;;;;;;;;;19.72;63.69;97454.19;4158353;28;5843;-72
2022/10/26 17:40:08;;;;;;;;;;;;;;;19.71;63.79;97455.25;4165793;28;5791;-71
2022/10/26 17:42:10;;;;;;;;;;;;;;;19.71;63.87;97452.56;4160092;28;5751;-71
2022/10/26 17:44:15;;;;;;;;;;;;;;;19.71;63.55;97465.97;4161918;28;5741;-72
2022/10/26 17:46:19;;;;;;;;;;;;;;;19.71;63.61;97468.66;4158693;28;5805;-72
2022/10/26 17:48:22;;;;;;;;;;;;;;;19.70;63.66;97467.00;4164583;28;6523;-72
2022/10/26 17:50:25;;;;;;;;;;;;;;;19.69;64.11;97473.41;4166227;28;5738;-73
2022/10/26 17:52:28;;;;;;;;;;;;;;;19.69;63.75;97469.94;4161550;28;5953;-71
2022/10/26 17:54:31;;;;;;;;;;;;;;;19.69;63.82;97469.94;4165726;28;5853;-73
2022/10/26 17:56:35;;;;;;;;;;;;;;;19.68;64.06;97466.44;4164568;28;5970;-72
2022/10/26 17:58:38;;;;;;;;;;;;;;;19.69;64.13;97469.94;4166942;28;5821;-72
2022/10/26 18:00:42;;;;;;;;;;;;;;;19.69;63.68;97473.41;4162029;28;6525;-73
2022/10/26 18:02:51;;;;;;;;;;;;;;;19.67;64.04;97478.22;4154089;28;6824;-73